ココス (キーリング) 諸島 の空港の天気 - METARとTAF

ココス島国際空港 ( YPCC / CCK ) - ココス諸島 ココス (キーリング) 諸島
飛行場実況気象(Metar)
観測時間01/22 00:41 CCT (01/21 18:11 UTC)
風向・風速南東 7m/s
視程5000m
天気現象
全天の4割程度の雲 雲底高度 790m
全天の4割程度の雲 雲底高度 940m
全天の8割程度の雲 雲底高度 1160m
気温27℃
湿度84%
気圧1006hPa
METARYPCC 211811Z AUTO 13013KT 5000 // SCT026 SCT031 BKN038 27/24 Q1006
過去の天気等 Google飛行場航空写真 Wunderground天気予報

過去48時間のMETAR

飛行場予報(TAF)
発表時間: 1/21 23:28 CCT (1/21 16:58 UTC)
予報対象時間: 21日23時 CCT ~ 23日0時 CCT
風向・風速南南東 7m/s
視程10km以上
天気現象弱いしゅう雨
全天の4割程度の雲 雲底高度 300m
全天の8割程度の雲 雲底高度 550m
22日0時 CCT ~ 23日24時 CCT に一時的に
風向・風速不定 10m/s 瞬間風速 18m/s
視程1,000m
天気現象雷雨
全天の8割程度の雲 雲底高度 150m
少しの積乱雲 雲底高度 550m
TAF AMD YPCC 211658Z 2117/2218 15014KT 9999 -SHRA SCT010 BKN018
TEMPO 2118/2218 VRB20G35KT 1000 TSRA BKN005 FEW018CB